sensor_id;sensor_type;location;lat;lon;timestamp;P1;durP1;ratioP1;P2;durP2;ratioP2
13102;SDS011;52970;46.752;17.108;2023-10-13T00:00:56;16.65;;;9.70;;
13102;SDS011;52970;46.752;17.108;2023-10-13T00:03:22;21.58;;;10.48;;
13102;SDS011;52970;46.752;17.108;2023-10-13T00:05:47;18.40;;;10.35;;
13102;SDS011;52970;46.752;17.108;2023-10-13T00:08:17;21.80;;;11.55;;
13102;SDS011;52970;46.752;17.108;2023-10-13T00:10:42;17.42;;;10.48;;
13102;SDS011;52970;46.752;17.108;2023-10-13T00:13:08;20.45;;;11.50;;
13102;SDS011;52970;46.752;17.108;2023-10-13T00:15:47;24.15;;;11.85;;
13102;SDS011;52970;46.752;17.108;2023-10-13T00:18:22;19.73;;;11.52;;
13102;SDS011;52970;46.752;17.108;2023-10-13T00:20:47;19.35;;;9.82;;
13102;SDS011;52970;46.752;17.108;2023-10-13T00:23:15;26.48;;;12.40;;
13102;SDS011;52970;46.752;17.108;2023-10-13T00:25:46;16.15;;;10.65;;
13102;SDS011;52970;46.752;17.108;2023-10-13T00:28:15;19.23;;;11.15;;
13102;SDS011;52970;46.752;17.108;2023-10-13T00:30:49;19.08;;;10.40;;
13102;SDS011;52970;46.752;17.108;2023-10-13T00:33:16;18.63;;;11.02;;
13102;SDS011;52970;46.752;17.108;2023-10-13T00:35:45;24.02;;;11.68;;
13102;SDS011;52970;46.752;17.108;2023-10-13T00:38:12;18.48;;;11.23;;
13102;SDS011;52970;46.752;17.108;2023-10-13T00:40:48;13.55;;;9.75;;
13102;SDS011;52970;46.752;17.108;2023-10-13T00:43:20;14.77;;;10.50;;
13102;SDS011;52970;46.752;17.108;2023-10-13T00:45:50;13.18;;;9.32;;
13102;SDS011;52970;46.752;17.108;2023-10-13T00:48:26;13.98;;;9.75;;
13102;SDS011;52970;46.752;17.108;2023-10-13T00:51:00;16.13;;;9.88;;
13102;SDS011;52970;46.752;17.108;2023-10-13T00:53:28;12.57;;;9.40;;
13102;SDS011;52970;46.752;17.108;2023-10-13T00:55:54;16.20;;;9.70;;
13102;SDS011;52970;46.752;17.108;2023-10-13T00:58:23;12.15;;;8.65;;
13102;SDS011;52970;46.752;17.108;2023-10-13T01:00:50;17.63;;;11.02;;
13102;SDS011;52970;46.752;17.108;2023-10-13T01:03:21;17.10;;;12.18;;
13102;SDS011;52970;46.752;17.108;2023-10-13T01:05:51;15.25;;;11.40;;
13102;SDS011;52970;46.752;17.108;2023-10-13T01:08:19;24.25;;;13.77;;
13102;SDS011;52970;46.752;17.108;2023-10-13T01:10:44;18.55;;;12.30;;
13102;SDS011;52970;46.752;17.108;2023-10-13T01:13:09;19.90;;;11.85;;
13102;SDS011;52970;46.752;17.108;2023-10-13T01:15:36;17.83;;;12.18;;
13102;SDS011;52970;46.752;17.108;2023-10-13T01:18:10;18.65;;;11.80;;
13102;SDS011;52970;46.752;17.108;2023-10-13T01:20:37;21.83;;;13.75;;
13102;SDS011;52970;46.752;17.108;2023-10-13T01:23:13;16.77;;;11.30;;
13102;SDS011;52970;46.752;17.108;2023-10-13T01:25:43;18.05;;;12.13;;
13102;SDS011;52970;46.752;17.108;2023-10-13T01:28:09;16.10;;;11.95;;
13102;SDS011;52970;46.752;17.108;2023-10-13T01:30:34;15.50;;;12.30;;
13102;SDS011;52970;46.752;17.108;2023-10-13T01:33:03;14.10;;;11.60;;
13102;SDS011;52970;46.752;17.108;2023-10-13T01:35:28;16.23;;;10.73;;
13102;SDS011;52970;46.752;17.108;2023-10-13T01:38:07;12.85;;;10.95;;
13102;SDS011;52970;46.752;17.108;2023-10-13T01:40:32;14.50;;;9.93;;
13102;SDS011;52970;46.752;17.108;2023-10-13T01:43:00;12.38;;;9.38;;
13102;SDS011;52970;46.752;17.108;2023-10-13T01:45:25;12.75;;;10.07;;
13102;SDS011;52970;46.752;17.108;2023-10-13T01:47:54;14.43;;;10.27;;
13102;SDS011;52970;46.752;17.108;2023-10-13T01:50:19;11.05;;;9.13;;
13102;SDS011;52970;46.752;17.108;2023-10-13T01:53:03;12.00;;;8.32;;
13102;SDS011;52970;46.752;17.108;2023-10-13T01:55:38;11.88;;;9.07;;
13102;SDS011;52970;46.752;17.108;2023-10-13T01:58:09;12.85;;;9.52;;
13102;SDS011;52970;46.752;17.108;2023-10-13T02:00:39;9.85;;;8.85;;
13102;SDS011;52970;46.752;17.108;2023-10-13T02:03:07;12.35;;;8.98;;
13102;SDS011;52970;46.752;17.108;2023-10-13T02:05:39;10.07;;;8.48;;
13102;SDS011;52970;46.752;17.108;2023-10-13T02:08:05;9.48;;;7.85;;
13102;SDS011;52970;46.752;17.108;2023-10-13T02:10:31;9.52;;;8.02;;
13102;SDS011;52970;46.752;17.108;2023-10-13T02:12:56;10.27;;;9.07;;
13102;SDS011;52970;46.752;17.108;2023-10-13T02:15:21;9.43;;;8.20;;
13102;SDS011;52970;46.752;17.108;2023-10-13T02:17:48;9.95;;;8.00;;
13102;SDS011;52970;46.752;17.108;2023-10-13T02:20:17;9.52;;;8.50;;
13102;SDS011;52970;46.752;17.108;2023-10-13T02:22:43;9.30;;;8.43;;
13102;SDS011;52970;46.752;17.108;2023-10-13T02:25:17;9.23;;;8.20;;
13102;SDS011;52970;46.752;17.108;2023-10-13T02:28:00;9.15;;;8.25;;
13102;SDS011;52970;46.752;17.108;2023-10-13T02:30:26;9.85;;;8.00;;
13102;SDS011;52970;46.752;17.108;2023-10-13T02:32:55;8.07;;;7.28;;
13102;SDS011;52970;46.752;17.108;2023-10-13T02:35:22;7.65;;;6.95;;
13102;SDS011;52970;46.752;17.108;2023-10-13T02:37:55;9.98;;;8.60;;
13102;SDS011;52970;46.752;17.108;2023-10-13T02:40:21;9.68;;;8.68;;
13102;SDS011;52970;46.752;17.108;2023-10-13T02:42:48;9.23;;;8.27;;
13102;SDS011;52970;46.752;17.108;2023-10-13T02:45:13;10.00;;;8.48;;
13102;SDS011;52970;46.752;17.108;2023-10-13T02:47:39;9.43;;;7.95;;
13102;SDS011;52970;46.752;17.108;2023-10-13T02:50:04;8.32;;;7.50;;
13102;SDS011;52970;46.752;17.108;2023-10-13T02:52:37;10.40;;;8.82;;
13102;SDS011;52970;46.752;17.108;2023-10-13T02:55:06;9.85;;;8.57;;
13102;SDS011;52970;46.752;17.108;2023-10-13T02:57:38;10.10;;;9.07;;
13102;SDS011;52970;46.752;17.108;2023-10-13T03:00:05;9.43;;;7.93;;
13102;SDS011;52970;46.752;17.108;2023-10-13T03:02:41;9.77;;;8.43;;
13102;SDS011;52970;46.752;17.108;2023-10-13T03:05:11;8.93;;;7.72;;
13102;SDS011;52970;46.752;17.108;2023-10-13T03:07:41;9.35;;;7.65;;
13102;SDS011;52970;46.752;17.108;2023-10-13T03:10:08;8.20;;;7.40;;
13102;SDS011;52970;46.752;17.108;2023-10-13T03:12:37;8.70;;;7.80;;
13102;SDS011;52970;46.752;17.108;2023-10-13T03:15:03;14.88;;;9.05;;
13102;SDS011;52970;46.752;17.108;2023-10-13T03:17:42;10.43;;;8.32;;
13102;SDS011;52970;46.752;17.108;2023-10-13T03:20:11;8.57;;;7.65;;
13102;SDS011;52970;46.752;17.108;2023-10-13T03:22:38;11.15;;;8.68;;
13102;SDS011;52970;46.752;17.108;2023-10-13T03:25:04;11.23;;;8.20;;
13102;SDS011;52970;46.752;17.108;2023-10-13T03:27:34;10.75;;;9.02;;
13102;SDS011;52970;46.752;17.108;2023-10-13T03:30:26;9.77;;;7.43;;
13102;SDS011;52970;46.752;17.108;2023-10-13T03:33:11;9.18;;;7.63;;
13102;SDS011;52970;46.752;17.108;2023-10-13T03:35:38;13.52;;;7.85;;
13102;SDS011;52970;46.752;17.108;2023-10-13T03:38:03;10.10;;;7.30;;
13102;SDS011;52970;46.752;17.108;2023-10-13T03:40:29;8.57;;;7.78;;
13102;SDS011;52970;46.752;17.108;2023-10-13T03:42:55;8.77;;;7.97;;
13102;SDS011;52970;46.752;17.108;2023-10-13T03:45:33;7.28;;;6.68;;
13102;SDS011;52970;46.752;17.108;2023-10-13T03:48:04;7.65;;;6.95;;
13102;SDS011;52970;46.752;17.108;2023-10-13T03:50:39;9.13;;;8.20;;
13102;SDS011;52970;46.752;17.108;2023-10-13T03:53:23;8.32;;;7.53;;
13102;SDS011;52970;46.752;17.108;2023-10-13T03:55:50;9.48;;;7.65;;
13102;SDS011;52970;46.752;17.108;2023-10-13T03:58:32;8.98;;;8.05;;
13102;SDS011;52970;46.752;17.108;2023-10-13T04:00:59;9.13;;;8.27;;
13102;SDS011;52970;46.752;17.108;2023-10-13T04:03:25;8.88;;;7.97;;
13102;SDS011;52970;46.752;17.108;2023-10-13T04:05:58;8.63;;;7.82;;
13102;SDS011;52970;46.752;17.108;2023-10-13T04:08:31;9.52;;;8.63;;
13102;SDS011;52970;46.752;17.108;2023-10-13T04:11:08;10.05;;;8.73;;
13102;SDS011;52970;46.752;17.108;2023-10-13T04:13:52;8.75;;;7.75;;
13102;SDS011;52970;46.752;17.108;2023-10-13T04:16:36;7.88;;;7.07;;
13102;SDS011;52970;46.752;17.108;2023-10-13T04:19:03;9.70;;;8.07;;
13102;SDS011;52970;46.752;17.108;2023-10-13T04:21:28;8.23;;;7.43;;
13102;SDS011;52970;46.752;17.108;2023-10-13T04:24:22;7.88;;;7.05;;
13102;SDS011;52970;46.752;17.108;2023-10-13T04:26:50;8.15;;;7.35;;
13102;SDS011;52970;46.752;17.108;2023-10-13T04:29:34;7.88;;;7.07;;
13102;SDS011;52970;46.752;17.108;2023-10-13T04:32:18;9.07;;;7.80;;
13102;SDS011;52970;46.752;17.108;2023-10-13T04:35:03;8.75;;;7.05;;
13102;SDS011;52970;46.752;17.108;2023-10-13T04:37:42;8.00;;;7.30;;
13102;SDS011;52970;46.752;17.108;2023-10-13T04:40:40;7.85;;;7.05;;
13102;SDS011;52970;46.752;17.108;2023-10-13T04:43:23;7.93;;;7.13;;
13102;SDS011;52970;46.752;17.108;2023-10-13T04:45:59;9.63;;;8.10;;
13102;SDS011;52970;46.752;17.108;2023-10-13T04:48:39;10.90;;;8.00;;
13102;SDS011;52970;46.752;17.108;2023-10-13T04:51:04;11.95;;;8.27;;
13102;SDS011;52970;46.752;17.108;2023-10-13T04:53:48;12.95;;;8.32;;
13102;SDS011;52970;46.752;17.108;2023-10-13T04:56:37;8.98;;;7.93;;
13102;SDS011;52970;46.752;17.108;2023-10-13T04:59:40;9.13;;;7.70;;
13102;SDS011;52970;46.752;17.108;2023-10-13T05:02:24;9.52;;;8.25;;
13102;SDS011;52970;46.752;17.108;2023-10-13T05:05:02;8.43;;;7.65;;
13102;SDS011;52970;46.752;17.108;2023-10-13T05:07:30;9.50;;;8.52;;
13102;SDS011;52970;46.752;17.108;2023-10-13T05:10:14;9.23;;;8.32;;
13102;SDS011;52970;46.752;17.108;2023-10-13T05:12:58;8.70;;;7.68;;
13102;SDS011;52970;46.752;17.108;2023-10-13T05:15:42;8.80;;;7.90;;
13102;SDS011;52970;46.752;17.108;2023-10-13T05:18:26;8.82;;;7.93;;
13102;SDS011;52970;46.752;17.108;2023-10-13T05:21:10;9.15;;;8.05;;
13102;SDS011;52970;46.752;17.108;2023-10-13T05:23:54;9.93;;;7.97;;
13102;SDS011;52970;46.752;17.108;2023-10-13T05:26:38;10.65;;;8.55;;
13102;SDS011;52970;46.752;17.108;2023-10-13T05:29:22;11.50;;;8.20;;
13102;SDS011;52970;46.752;17.108;2023-10-13T05:32:06;8.25;;;7.25;;
13102;SDS011;52970;46.752;17.108;2023-10-13T05:34:50;9.70;;;7.72;;
13102;SDS011;52970;46.752;17.108;2023-10-13T05:37:34;12.70;;;8.90;;
13102;SDS011;52970;46.752;17.108;2023-10-13T05:40:18;8.95;;;7.57;;
13102;SDS011;52970;46.752;17.108;2023-10-13T05:43:02;8.13;;;7.32;;
13102;SDS011;52970;46.752;17.108;2023-10-13T05:45:46;8.95;;;7.68;;
13102;SDS011;52970;46.752;17.108;2023-10-13T05:48:29;9.35;;;7.75;;
13102;SDS011;52970;46.752;17.108;2023-10-13T05:51:29;11.18;;;8.55;;
13102;SDS011;52970;46.752;17.108;2023-10-13T05:54:00;13.65;;;8.80;;
13102;SDS011;52970;46.752;17.108;2023-10-13T05:56:43;18.85;;;10.02;;
13102;SDS011;52970;46.752;17.108;2023-10-13T05:59:27;12.50;;;8.43;;
13102;SDS011;52970;46.752;17.108;2023-10-13T06:02:15;10.52;;;8.77;;
13102;SDS011;52970;46.752;17.108;2023-10-13T06:05:03;12.48;;;9.15;;
13102;SDS011;52970;46.752;17.108;2023-10-13T06:07:47;8.45;;;7.55;;
13102;SDS011;52970;46.752;17.108;2023-10-13T06:10:30;9.68;;;8.68;;
13102;SDS011;52970;46.752;17.108;2023-10-13T06:13:14;8.75;;;7.82;;
13102;SDS011;52970;46.752;17.108;2023-10-13T06:15:58;7.82;;;7.13;;
13102;SDS011;52970;46.752;17.108;2023-10-13T06:18:42;8.77;;;7.50;;
13102;SDS011;52970;46.752;17.108;2023-10-13T06:21:26;12.73;;;8.43;;
13102;SDS011;52970;46.752;17.108;2023-10-13T06:24:10;16.17;;;10.30;;
13102;SDS011;52970;46.752;17.108;2023-10-13T06:26:54;13.73;;;10.40;;
13102;SDS011;52970;46.752;17.108;2023-10-13T06:29:38;11.93;;;10.05;;
13102;SDS011;52970;46.752;17.108;2023-10-13T06:32:03;14.43;;;9.88;;
13102;SDS011;52970;46.752;17.108;2023-10-13T06:34:35;14.68;;;9.55;;
13102;SDS011;52970;46.752;17.108;2023-10-13T06:37:16;14.60;;;10.40;;
13102;SDS011;52970;46.752;17.108;2023-10-13T06:39:59;13.48;;;10.05;;
13102;SDS011;52970;46.752;17.108;2023-10-13T06:42:30;13.75;;;9.85;;
13102;SDS011;52970;46.752;17.108;2023-10-13T06:44:59;14.05;;;10.40;;
13102;SDS011;52970;46.752;17.108;2023-10-13T06:47:33;10.70;;;9.57;;
13102;SDS011;52970;46.752;17.108;2023-10-13T06:49:58;10.40;;;9.40;;
13102;SDS011;52970;46.752;17.108;2023-10-13T06:52:25;10.50;;;9.45;;
13102;SDS011;52970;46.752;17.108;2023-10-13T06:54:54;12.95;;;10.45;;
13102;SDS011;52970;46.752;17.108;2023-10-13T06:57:20;11.65;;;10.43;;
13102;SDS011;52970;46.752;17.108;2023-10-13T06:59:46;11.45;;;10.25;;
13102;SDS011;52970;46.752;17.108;2023-10-13T07:02:11;12.43;;;10.57;;
13102;SDS011;52970;46.752;17.108;2023-10-13T07:04:46;10.55;;;9.45;;
13102;SDS011;52970;46.752;17.108;2023-10-13T07:07:12;13.25;;;10.82;;
13102;SDS011;52970;46.752;17.108;2023-10-13T07:09:40;15.30;;;10.27;;
13102;SDS011;52970;46.752;17.108;2023-10-13T07:12:06;12.02;;;10.73;;
13102;SDS011;52970;46.752;17.108;2023-10-13T07:14:50;13.30;;;10.55;;
13102;SDS011;52970;46.752;17.108;2023-10-13T07:17:24;11.82;;;10.55;;
13102;SDS011;52970;46.752;17.108;2023-10-13T07:19:52;12.93;;;10.27;;
13102;SDS011;52970;46.752;17.108;2023-10-13T07:22:18;12.40;;;9.32;;
13102;SDS011;52970;46.752;17.108;2023-10-13T07:24:47;10.15;;;9.15;;
13102;SDS011;52970;46.752;17.108;2023-10-13T07:27:17;9.80;;;8.80;;
13102;SDS011;52970;46.752;17.108;2023-10-13T07:29:52;9.63;;;8.80;;
13102;SDS011;52970;46.752;17.108;2023-10-13T07:32:38;8.70;;;7.90;;
13102;SDS011;52970;46.752;17.108;2023-10-13T07:35:03;9.63;;;8.82;;
13102;SDS011;52970;46.752;17.108;2023-10-13T07:37:36;9.82;;;8.82;;
13102;SDS011;52970;46.752;17.108;2023-10-13T07:40:04;9.18;;;8.05;;
13102;SDS011;52970;46.752;17.108;2023-10-13T07:42:47;8.77;;;8.00;;
13102;SDS011;52970;46.752;17.108;2023-10-13T07:45:12;8.02;;;7.32;;
13102;SDS011;52970;46.752;17.108;2023-10-13T07:47:38;8.88;;;8.02;;
13102;SDS011;52970;46.752;17.108;2023-10-13T07:50:04;9.45;;;8.15;;
13102;SDS011;52970;46.752;17.108;2023-10-13T07:52:31;9.23;;;8.10;;
13102;SDS011;52970;46.752;17.108;2023-10-13T07:55:05;8.68;;;7.70;;
13102;SDS011;52970;46.752;17.108;2023-10-13T07:57:39;8.68;;;7.82;;
13102;SDS011;52970;46.752;17.108;2023-10-13T08:00:20;12.10;;;7.60;;
13102;SDS011;52970;46.752;17.108;2023-10-13T08:03:12;8.98;;;8.18;;
13102;SDS011;52970;46.752;17.108;2023-10-13T08:05:43;10.35;;;9.35;;
13102;SDS011;52970;46.752;17.108;2023-10-13T08:08:23;10.50;;;8.73;;
13102;SDS011;52970;46.752;17.108;2023-10-13T08:10:53;10.60;;;9.52;;
13102;SDS011;52970;46.752;17.108;2023-10-13T08:13:26;10.45;;;9.05;;
13102;SDS011;52970;46.752;17.108;2023-10-13T08:15:51;10.45;;;9.15;;
13102;SDS011;52970;46.752;17.108;2023-10-13T08:18:18;9.75;;;8.73;;
13102;SDS011;52970;46.752;17.108;2023-10-13T08:20:56;10.48;;;9.32;;
13102;SDS011;52970;46.752;17.108;2023-10-13T08:23:27;12.10;;;10.90;;
13102;SDS011;52970;46.752;17.108;2023-10-13T08:26:12;10.93;;;9.40;;
13102;SDS011;52970;46.752;17.108;2023-10-13T08:28:57;10.77;;;9.73;;
13102;SDS011;52970;46.752;17.108;2023-10-13T08:31:42;11.52;;;10.30;;
13102;SDS011;52970;46.752;17.108;2023-10-13T08:34:12;11.32;;;10.20;;
13102;SDS011;52970;46.752;17.108;2023-10-13T08:36:41;11.52;;;10.32;;
13102;SDS011;52970;46.752;17.108;2023-10-13T08:39:06;13.85;;;10.98;;
13102;SDS011;52970;46.752;17.108;2023-10-13T08:41:48;38.97;;;34.45;;
13102;SDS011;52970;46.752;17.108;2023-10-13T08:44:37;33.42;;;30.00;;
13102;SDS011;52970;46.752;17.108;2023-10-13T08:47:03;12.63;;;11.13;;
13102;SDS011;52970;46.752;17.108;2023-10-13T08:49:31;12.32;;;10.52;;
13102;SDS011;52970;46.752;17.108;2023-10-13T08:52:04;13.13;;;10.85;;
13102;SDS011;52970;46.752;17.108;2023-10-13T08:54:35;13.07;;;10.68;;
13102;SDS011;52970;46.752;17.108;2023-10-13T08:57:04;15.45;;;12.43;;
13102;SDS011;52970;46.752;17.108;2023-10-13T08:59:48;15.35;;;11.45;;
13102;SDS011;52970;46.752;17.108;2023-10-13T09:02:20;14.00;;;10.98;;
13102;SDS011;52970;46.752;17.108;2023-10-13T09:04:47;16.25;;;11.68;;
13102;SDS011;52970;46.752;17.108;2023-10-13T09:07:24;12.07;;;10.75;;
13102;SDS011;52970;46.752;17.108;2023-10-13T09:09:50;14.05;;;11.88;;
13102;SDS011;52970;46.752;17.108;2023-10-13T09:12:16;17.52;;;12.65;;
13102;SDS011;52970;46.752;17.108;2023-10-13T09:14:44;14.00;;;11.18;;
13102;SDS011;52970;46.752;17.108;2023-10-13T09:17:22;14.75;;;11.55;;
13102;SDS011;52970;46.752;17.108;2023-10-13T09:20:04;14.45;;;12.00;;
13102;SDS011;52970;46.752;17.108;2023-10-13T09:22:49;14.38;;;10.45;;
13102;SDS011;52970;46.752;17.108;2023-10-13T09:25:29;15.32;;;11.13;;
13102;SDS011;52970;46.752;17.108;2023-10-13T09:30:42;14.75;;;11.45;;
13102;SDS011;52970;46.752;17.108;2023-10-13T09:33:07;18.33;;;12.02;;
13102;SDS011;52970;46.752;17.108;2023-10-13T09:35:44;16.73;;;10.55;;
13102;SDS011;52970;46.752;17.108;2023-10-13T09:38:14;12.13;;;9.88;;
13102;SDS011;52970;46.752;17.108;2023-10-13T09:40:40;11.80;;;10.60;;
13102;SDS011;52970;46.752;17.108;2023-10-13T09:43:11;13.45;;;10.95;;
13102;SDS011;52970;46.752;17.108;2023-10-13T09:45:40;16.05;;;10.10;;
13102;SDS011;52970;46.752;17.108;2023-10-13T09:48:12;14.15;;;11.10;;
13102;SDS011;52970;46.752;17.108;2023-10-13T09:50:47;12.68;;;10.10;;
13102;SDS011;52970;46.752;17.108;2023-10-13T09:53:13;16.70;;;9.77;;
13102;SDS011;52970;46.752;17.108;2023-10-13T09:55:59;12.45;;;9.40;;
13102;SDS011;52970;46.752;17.108;2023-10-13T09:58:36;12.98;;;9.85;;
13102;SDS011;52970;46.752;17.108;2023-10-13T10:01:02;11.35;;;8.95;;
13102;SDS011;52970;46.752;17.108;2023-10-13T10:03:50;14.70;;;10.07;;
13102;SDS011;52970;46.752;17.108;2023-10-13T10:06:33;10.35;;;9.00;;
13102;SDS011;52970;46.752;17.108;2023-10-13T10:09:04;12.32;;;10.00;;
13102;SDS011;52970;46.752;17.108;2023-10-13T10:14:12;11.48;;;9.40;;
13102;SDS011;52970;46.752;17.108;2023-10-13T10:19:11;11.55;;;8.85;;
13102;SDS011;52970;46.752;17.108;2023-10-13T10:21:36;12.57;;;8.88;;
13102;SDS011;52970;46.752;17.108;2023-10-13T10:24:15;13.18;;;8.35;;
13102;SDS011;52970;46.752;17.108;2023-10-13T10:26:52;12.57;;;9.25;;
13102;SDS011;52970;46.752;17.108;2023-10-13T10:29:18;12.10;;;9.23;;
13102;SDS011;52970;46.752;17.108;2023-10-13T10:31:43;10.98;;;8.98;;
13102;SDS011;52970;46.752;17.108;2023-10-13T10:34:19;13.07;;;9.82;;
13102;SDS011;52970;46.752;17.108;2023-10-13T10:36:54;13.43;;;9.05;;
13102;SDS011;52970;46.752;17.108;2023-10-13T10:39:19;13.35;;;9.18;;
13102;SDS011;52970;46.752;17.108;2023-10-13T10:41:46;11.90;;;8.82;;
13102;SDS011;52970;46.752;17.108;2023-10-13T10:44:17;13.15;;;9.02;;
13102;SDS011;52970;46.752;17.108;2023-10-13T10:47:11;10.88;;;9.30;;
13102;SDS011;52970;46.752;17.108;2023-10-13T10:49:37;13.00;;;8.93;;
13102;SDS011;52970;46.752;17.108;2023-10-13T10:52:02;13.85;;;8.90;;
13102;SDS011;52970;46.752;17.108;2023-10-13T10:54:29;13.48;;;9.25;;
13102;SDS011;52970;46.752;17.108;2023-10-13T10:56:58;13.48;;;9.98;;
13102;SDS011;52970;46.752;17.108;2023-10-13T10:59:36;11.30;;;8.90;;
13102;SDS011;52970;46.752;17.108;2023-10-13T11:02:02;13.13;;;9.20;;
13102;SDS011;52970;46.752;17.108;2023-10-13T11:04:28;14.95;;;9.27;;
13102;SDS011;52970;46.752;17.108;2023-10-13T11:06:59;14.55;;;9.32;;
13102;SDS011;52970;46.752;17.108;2023-10-13T11:11:55;15.57;;;9.30;;
13102;SDS011;52970;46.752;17.108;2023-10-13T11:14:23;15.73;;;9.77;;
13102;SDS011;52970;46.752;17.108;2023-10-13T11:16:49;13.38;;;9.18;;
13102;SDS011;52970;46.752;17.108;2023-10-13T11:19:36;13.27;;;9.25;;
13102;SDS011;52970;46.752;17.108;2023-10-13T11:22:20;11.38;;;9.52;;
13102;SDS011;52970;46.752;17.108;2023-10-13T11:24:57;14.65;;;10.20;;
13102;SDS011;52970;46.752;17.108;2023-10-13T11:27:30;12.18;;;9.43;;
13102;SDS011;52970;46.752;17.108;2023-10-13T11:30:14;15.35;;;8.93;;
13102;SDS011;52970;46.752;17.108;2023-10-13T11:32:44;15.93;;;10.13;;
13102;SDS011;52970;46.752;17.108;2023-10-13T11:35:10;13.38;;;8.82;;
13102;SDS011;52970;46.752;17.108;2023-10-13T11:37:50;14.82;;;10.40;;
13102;SDS011;52970;46.752;17.108;2023-10-13T11:40:28;13.50;;;9.30;;
13102;SDS011;52970;46.752;17.108;2023-10-13T11:43:09;12.52;;;9.90;;
13102;SDS011;52970;46.752;17.108;2023-10-13T11:45:39;13.02;;;9.35;;
13102;SDS011;52970;46.752;17.108;2023-10-13T11:48:17;16.08;;;10.00;;
13102;SDS011;52970;46.752;17.108;2023-10-13T11:50:48;13.65;;;9.38;;
13102;SDS011;52970;46.752;17.108;2023-10-13T11:53:14;15.48;;;9.32;;
13102;SDS011;52970;46.752;17.108;2023-10-13T11:55:39;13.03;;;9.13;;
13102;SDS011;52970;46.752;17.108;2023-10-13T11:58:04;12.18;;;8.70;;
13102;SDS011;52970;46.752;17.108;2023-10-13T12:00:31;13.02;;;8.60;;
13102;SDS011;52970;46.752;17.108;2023-10-13T12:03:14;15.23;;;9.02;;
13102;SDS011;52970;46.752;17.108;2023-10-13T12:05:59;14.48;;;9.65;;
13102;SDS011;52970;46.752;17.108;2023-10-13T12:08:44;13.05;;;8.20;;
13102;SDS011;52970;46.752;17.108;2023-10-13T12:11:18;13.32;;;9.10;;
13102;SDS011;52970;46.752;17.108;2023-10-13T12:13:55;12.63;;;8.82;;
13102;SDS011;52970;46.752;17.108;2023-10-13T12:16:20;11.93;;;8.57;;
13102;SDS011;52970;46.752;17.108;2023-10-13T12:18:47;14.02;;;8.65;;
13102;SDS011;52970;46.752;17.108;2023-10-13T12:21:18;13.98;;;8.40;;
13102;SDS011;52970;46.752;17.108;2023-10-13T12:23:46;9.88;;;8.13;;
13102;SDS011;52970;46.752;17.108;2023-10-13T12:26:11;13.18;;;9.07;;
13102;SDS011;52970;46.752;17.108;2023-10-13T12:28:44;14.57;;;9.25;;
13102;SDS011;52970;46.752;17.108;2023-10-13T12:31:16;12.45;;;8.57;;
13102;SDS011;52970;46.752;17.108;2023-10-13T12:33:42;11.23;;;8.30;;
13102;SDS011;52970;46.752;17.108;2023-10-13T12:36:08;11.07;;;8.68;;
13102;SDS011;52970;46.752;17.108;2023-10-13T12:38:34;15.07;;;9.48;;
13102;SDS011;52970;46.752;17.108;2023-10-13T12:41:05;11.43;;;8.13;;
13102;SDS011;52970;46.752;17.108;2023-10-13T12:43:48;14.10;;;8.45;;
13102;SDS011;52970;46.752;17.108;2023-10-13T12:46:37;12.27;;;8.15;;
13102;SDS011;52970;46.752;17.108;2023-10-13T12:49:21;17.67;;;8.90;;
13102;SDS011;52970;46.752;17.108;2023-10-13T12:52:05;14.10;;;8.90;;
13102;SDS011;52970;46.752;17.108;2023-10-13T12:54:40;13.00;;;7.90;;
13102;SDS011;52970;46.752;17.108;2023-10-13T12:57:07;14.48;;;8.13;;
13102;SDS011;52970;46.752;17.108;2023-10-13T12:59:34;10.90;;;7.25;;
13102;SDS011;52970;46.752;17.108;2023-10-13T13:01:59;12.30;;;7.85;;
13102;SDS011;52970;46.752;17.108;2023-10-13T13:04:25;14.50;;;8.00;;
13102;SDS011;52970;46.752;17.108;2023-10-13T13:06:56;14.65;;;8.82;;
13102;SDS011;52970;46.752;17.108;2023-10-13T13:09:22;12.33;;;8.60;;
13102;SDS011;52970;46.752;17.108;2023-10-13T13:11:53;11.52;;;8.35;;
13102;SDS011;52970;46.752;17.108;2023-10-13T13:14:22;11.55;;;8.18;;
13102;SDS011;52970;46.752;17.108;2023-10-13T13:16:54;14.32;;;8.48;;
13102;SDS011;52970;46.752;17.108;2023-10-13T13:19:19;13.65;;;8.02;;
13102;SDS011;52970;46.752;17.108;2023-10-13T13:21:50;11.10;;;7.68;;
13102;SDS011;52970;46.752;17.108;2023-10-13T13:24:16;15.95;;;8.25;;
13102;SDS011;52970;46.752;17.108;2023-10-13T13:26:41;12.98;;;8.27;;
13102;SDS011;52970;46.752;17.108;2023-10-13T13:29:06;11.65;;;8.10;;
13102;SDS011;52970;46.752;17.108;2023-10-13T13:31:35;14.82;;;7.93;;
13102;SDS011;52970;46.752;17.108;2023-10-13T13:34:06;14.73;;;9.18;;
13102;SDS011;52970;46.752;17.108;2023-10-13T13:36:34;15.57;;;7.68;;
13102;SDS011;52970;46.752;17.108;2023-10-13T13:38:59;13.40;;;7.85;;
13102;SDS011;52970;46.752;17.108;2023-10-13T13:41:25;11.93;;;7.55;;
13102;SDS011;52970;46.752;17.108;2023-10-13T13:43:50;13.80;;;8.00;;
13102;SDS011;52970;46.752;17.108;2023-10-13T13:46:20;12.65;;;7.60;;
13102;SDS011;52970;46.752;17.108;2023-10-13T13:48:50;11.65;;;8.27;;
13102;SDS011;52970;46.752;17.108;2023-10-13T13:51:16;14.65;;;8.68;;
13102;SDS011;52970;46.752;17.108;2023-10-13T13:53:51;14.27;;;8.23;;
13102;SDS011;52970;46.752;17.108;2023-10-13T13:56:18;13.65;;;8.18;;
13102;SDS011;52970;46.752;17.108;2023-10-13T13:58:46;14.27;;;8.98;;
13102;SDS011;52970;46.752;17.108;2023-10-13T14:01:12;14.68;;;9.23;;
13102;SDS011;52970;46.752;17.108;2023-10-13T14:03:43;13.10;;;9.27;;
13102;SDS011;52970;46.752;17.108;2023-10-13T14:06:12;16.00;;;8.98;;
13102;SDS011;52970;46.752;17.108;2023-10-13T14:08:48;15.27;;;8.82;;
13102;SDS011;52970;46.752;17.108;2023-10-13T14:11:14;14.88;;;9.98;;
13102;SDS011;52970;46.752;17.108;2023-10-13T14:13:48;13.48;;;9.70;;
13102;SDS011;52970;46.752;17.108;2023-10-13T14:16:36;13.48;;;9.23;;
13102;SDS011;52970;46.752;17.108;2023-10-13T14:19:02;12.38;;;9.13;;
13102;SDS011;52970;46.752;17.108;2023-10-13T14:21:27;12.85;;;8.70;;
13102;SDS011;52970;46.752;17.108;2023-10-13T14:23:53;12.98;;;9.00;;
13102;SDS011;52970;46.752;17.108;2023-10-13T14:26:21;13.13;;;9.32;;
13102;SDS011;52970;46.752;17.108;2023-10-13T14:28:49;16.10;;;9.32;;
13102;SDS011;52970;46.752;17.108;2023-10-13T14:31:25;15.30;;;9.55;;
13102;SDS011;52970;46.752;17.108;2023-10-13T14:33:51;9.98;;;8.70;;
13102;SDS011;52970;46.752;17.108;2023-10-13T14:36:16;12.70;;;9.27;;
13102;SDS011;52970;46.752;17.108;2023-10-13T14:38:44;15.90;;;9.65;;
13102;SDS011;52970;46.752;17.108;2023-10-13T14:41:12;15.45;;;10.60;;
13102;SDS011;52970;46.752;17.108;2023-10-13T14:43:38;18.40;;;9.87;;
13102;SDS011;52970;46.752;17.108;2023-10-13T14:46:07;12.10;;;9.93;;
13102;SDS011;52970;46.752;17.108;2023-10-13T14:48:33;14.00;;;10.05;;
13102;SDS011;52970;46.752;17.108;2023-10-13T14:50:58;15.07;;;9.85;;
13102;SDS011;52970;46.752;17.108;2023-10-13T14:53:23;15.60;;;10.02;;
13102;SDS011;52970;46.752;17.108;2023-10-13T14:55:48;17.23;;;9.50;;
13102;SDS011;52970;46.752;17.108;2023-10-13T14:58:16;15.25;;;10.25;;
13102;SDS011;52970;46.752;17.108;2023-10-13T15:00:44;14.75;;;10.85;;
13102;SDS011;52970;46.752;17.108;2023-10-13T15:03:10;14.60;;;10.52;;